sensor_id;sensor_type;location;lat;lon;timestamp;P1;durP1;ratioP1;P2;durP2;ratioP2
76051;SDS011;64751;48.708;9.710;2024-02-26T00:01:01;0.95;;;0.65;;
76051;SDS011;64751;48.708;9.710;2024-02-26T00:03:35;0.63;;;0.50;;
76051;SDS011;64751;48.708;9.710;2024-02-26T00:06:02;1.27;;;0.80;;
76051;SDS011;64751;48.708;9.710;2024-02-26T00:08:35;1.13;;;0.90;;
76051;SDS011;64751;48.708;9.710;2024-02-26T00:11:07;1.30;;;0.90;;
76051;SDS011;64751;48.708;9.710;2024-02-26T00:13:39;0.90;;;0.70;;
76051;SDS011;64751;48.708;9.710;2024-02-26T00:16:12;0.90;;;0.80;;
76051;SDS011;64751;48.708;9.710;2024-02-26T00:18:46;0.68;;;0.63;;
76051;SDS011;64751;48.708;9.710;2024-02-26T00:21:13;0.85;;;0.70;;
76051;SDS011;64751;48.708;9.710;2024-02-26T00:23:45;0.70;;;0.55;;
76051;SDS011;64751;48.708;9.710;2024-02-26T00:26:18;0.90;;;0.57;;
76051;SDS011;64751;48.708;9.710;2024-02-26T00:28:50;1.00;;;0.70;;
76051;SDS011;64751;48.708;9.710;2024-02-26T00:31:23;1.10;;;0.90;;
76051;SDS011;64751;48.708;9.710;2024-02-26T00:33:52;0.90;;;0.68;;
76051;SDS011;64751;48.708;9.710;2024-02-26T00:36:24;0.57;;;0.55;;
76051;SDS011;64751;48.708;9.710;2024-02-26T00:38:52;1.10;;;0.80;;
76051;SDS011;64751;48.708;9.710;2024-02-26T00:41:24;0.82;;;0.60;;
76051;SDS011;64751;48.708;9.710;2024-02-26T00:43:58;1.10;;;0.90;;
76051;SDS011;64751;48.708;9.710;2024-02-26T00:46:26;0.90;;;0.70;;
76051;SDS011;64751;48.708;9.710;2024-02-26T00:49:00;0.93;;;0.80;;
76051;SDS011;64751;48.708;9.710;2024-02-26T00:51:33;0.98;;;0.80;;
76051;SDS011;64751;48.708;9.710;2024-02-26T00:54:01;1.20;;;0.80;;
76051;SDS011;64751;48.708;9.710;2024-02-26T00:56:29;0.88;;;0.63;;
76051;SDS011;64751;48.708;9.710;2024-02-26T00:58:56;0.85;;;0.70;;
76051;SDS011;64751;48.708;9.710;2024-02-26T01:01:29;0.90;;;0.70;;
76051;SDS011;64751;48.708;9.710;2024-02-26T01:03:56;0.95;;;0.77;;
76051;SDS011;64751;48.708;9.710;2024-02-26T01:06:30;0.63;;;0.55;;
76051;SDS011;64751;48.708;9.710;2024-02-26T01:09:02;0.73;;;0.70;;
76051;SDS011;64751;48.708;9.710;2024-02-26T01:11:35;0.77;;;0.65;;
76051;SDS011;64751;48.708;9.710;2024-02-26T01:14:02;1.00;;;0.85;;
76051;SDS011;64751;48.708;9.710;2024-02-26T01:16:30;1.17;;;0.90;;
76051;SDS011;64751;48.708;9.710;2024-02-26T01:18:57;1.00;;;0.80;;
76051;SDS011;64751;48.708;9.710;2024-02-26T01:21:31;1.00;;;0.85;;
76051;SDS011;64751;48.708;9.710;2024-02-26T01:24:04;0.73;;;0.70;;
76051;SDS011;64751;48.708;9.710;2024-02-26T01:26:37;1.20;;;0.90;;
76051;SDS011;64751;48.708;9.710;2024-02-26T01:29:04;1.00;;;0.90;;
76051;SDS011;64751;48.708;9.710;2024-02-26T01:31:31;1.38;;;1.00;;
76051;SDS011;64751;48.708;9.710;2024-02-26T01:34:04;0.90;;;0.80;;
76051;SDS011;64751;48.708;9.710;2024-02-26T01:36:37;1.13;;;0.80;;
76051;SDS011;64751;48.708;9.710;2024-02-26T01:39:05;1.13;;;0.82;;
76051;SDS011;64751;48.708;9.710;2024-02-26T01:41:32;1.40;;;0.93;;
76051;SDS011;64751;48.708;9.710;2024-02-26T01:44:04;1.13;;;0.80;;
76051;SDS011;64751;48.708;9.710;2024-02-26T01:46:37;1.15;;;0.90;;
76051;SDS011;64751;48.708;9.710;2024-02-26T01:49:04;0.65;;;0.63;;
76051;SDS011;64751;48.708;9.710;2024-02-26T01:51:39;1.13;;;0.90;;
76051;SDS011;64751;48.708;9.710;2024-02-26T01:54:12;1.33;;;0.90;;
76051;SDS011;64751;48.708;9.710;2024-02-26T01:56:40;0.93;;;0.82;;
76051;SDS011;64751;48.708;9.710;2024-02-26T01:59:08;1.05;;;0.90;;
76051;SDS011;64751;48.708;9.710;2024-02-26T02:01:36;0.95;;;0.73;;
76051;SDS011;64751;48.708;9.710;2024-02-26T02:04:11;1.58;;;0.85;;
76051;SDS011;64751;48.708;9.710;2024-02-26T02:06:45;1.25;;;1.00;;
76051;SDS011;64751;48.708;9.710;2024-02-26T02:09:18;0.95;;;0.85;;
76051;SDS011;64751;48.708;9.710;2024-02-26T02:11:50;1.48;;;1.08;;
76051;SDS011;64751;48.708;9.710;2024-02-26T02:14:24;0.98;;;0.82;;
76051;SDS011;64751;48.708;9.710;2024-02-26T02:16:57;1.15;;;0.98;;
76051;SDS011;64751;48.708;9.710;2024-02-26T02:19:29;0.93;;;0.80;;
76051;SDS011;64751;48.708;9.710;2024-02-26T02:22:03;0.73;;;0.70;;
76051;SDS011;64751;48.708;9.710;2024-02-26T02:24:31;1.23;;;0.95;;
76051;SDS011;64751;48.708;9.710;2024-02-26T02:27:03;1.17;;;0.90;;
76051;SDS011;64751;48.708;9.710;2024-02-26T02:29:31;1.55;;;1.08;;
76051;SDS011;64751;48.708;9.710;2024-02-26T02:31:58;1.92;;;1.30;;
76051;SDS011;64751;48.708;9.710;2024-02-26T02:34:28;1.50;;;1.00;;
76051;SDS011;64751;48.708;9.710;2024-02-26T02:36:55;0.85;;;0.85;;
76051;SDS011;64751;48.708;9.710;2024-02-26T02:39:29;1.15;;;0.80;;
76051;SDS011;64751;48.708;9.710;2024-02-26T02:41:56;1.23;;;0.90;;
76051;SDS011;64751;48.708;9.710;2024-02-26T02:44:29;1.25;;;0.82;;
76051;SDS011;64751;48.708;9.710;2024-02-26T02:46:56;1.02;;;0.77;;
76051;SDS011;64751;48.708;9.710;2024-02-26T02:49:28;0.93;;;0.80;;
76051;SDS011;64751;48.708;9.710;2024-02-26T02:52:01;1.08;;;0.90;;
76051;SDS011;64751;48.708;9.710;2024-02-26T02:54:34;0.82;;;0.73;;
76051;SDS011;64751;48.708;9.710;2024-02-26T02:57:02;1.05;;;0.70;;
76051;SDS011;64751;48.708;9.710;2024-02-26T02:59:35;1.05;;;0.88;;
76051;SDS011;64751;48.708;9.710;2024-02-26T03:02:08;0.80;;;0.70;;
76051;SDS011;64751;48.708;9.710;2024-02-26T03:04:35;1.25;;;0.90;;
76051;SDS011;64751;48.708;9.710;2024-02-26T03:07:07;0.80;;;0.65;;
76051;SDS011;64751;48.708;9.710;2024-02-26T03:09:36;1.35;;;0.93;;
76051;SDS011;64751;48.708;9.710;2024-02-26T03:12:03;1.85;;;1.00;;
76051;SDS011;64751;48.708;9.710;2024-02-26T03:14:31;1.50;;;0.95;;
76051;SDS011;64751;48.708;9.710;2024-02-26T03:16:58;0.98;;;0.85;;
76051;SDS011;64751;48.708;9.710;2024-02-26T03:19:26;1.10;;;0.90;;
76051;SDS011;64751;48.708;9.710;2024-02-26T03:21:58;0.90;;;0.80;;
76051;SDS011;64751;48.708;9.710;2024-02-26T03:24:26;1.23;;;0.75;;
76051;SDS011;64751;48.708;9.710;2024-02-26T03:26:59;0.77;;;0.55;;
76051;SDS011;64751;48.708;9.710;2024-02-26T03:29:27;1.17;;;0.85;;
76051;SDS011;64751;48.708;9.710;2024-02-26T03:31:54;1.20;;;0.93;;
76051;SDS011;64751;48.708;9.710;2024-02-26T03:34:21;0.80;;;0.70;;
76051;SDS011;64751;48.708;9.710;2024-02-26T03:36:49;0.98;;;0.82;;
76051;SDS011;64751;48.708;9.710;2024-02-26T03:39:16;0.95;;;0.80;;
76051;SDS011;64751;48.708;9.710;2024-02-26T03:41:43;1.05;;;0.75;;
76051;SDS011;64751;48.708;9.710;2024-02-26T03:44:17;0.93;;;0.80;;
76051;SDS011;64751;48.708;9.710;2024-02-26T03:46:49;1.00;;;0.73;;
76051;SDS011;64751;48.708;9.710;2024-02-26T03:49:22;0.90;;;0.70;;
76051;SDS011;64751;48.708;9.710;2024-02-26T03:51:49;0.75;;;0.68;;
76051;SDS011;64751;48.708;9.710;2024-02-26T03:54:22;0.77;;;0.65;;
76051;SDS011;64751;48.708;9.710;2024-02-26T03:56:54;0.73;;;0.70;;
76051;SDS011;64751;48.708;9.710;2024-02-26T03:59:23;1.23;;;0.90;;
76051;SDS011;64751;48.708;9.710;2024-02-26T04:01:55;1.27;;;0.90;;
76051;SDS011;64751;48.708;9.710;2024-02-26T04:04:28;1.05;;;0.85;;
76051;SDS011;64751;48.708;9.710;2024-02-26T04:06:55;1.00;;;0.88;;
76051;SDS011;64751;48.708;9.710;2024-02-26T04:09:28;0.85;;;0.63;;
76051;SDS011;64751;48.708;9.710;2024-02-26T04:12:02;0.98;;;0.80;;
76051;SDS011;64751;48.708;9.710;2024-02-26T04:14:37;0.65;;;0.65;;
76051;SDS011;64751;48.708;9.710;2024-02-26T04:17:09;0.98;;;0.77;;
76051;SDS011;64751;48.708;9.710;2024-02-26T04:19:42;1.50;;;1.02;;
76051;SDS011;64751;48.708;9.710;2024-02-26T04:22:14;2.08;;;0.93;;
76051;SDS011;64751;48.708;9.710;2024-02-26T04:24:46;1.17;;;0.90;;
76051;SDS011;64751;48.708;9.710;2024-02-26T04:27:19;1.05;;;0.85;;
76051;SDS011;64751;48.708;9.710;2024-02-26T04:29:53;1.08;;;0.80;;
76051;SDS011;64751;48.708;9.710;2024-02-26T04:32:25;0.85;;;0.70;;
76051;SDS011;64751;48.708;9.710;2024-02-26T04:34:53;1.60;;;0.80;;
76051;SDS011;64751;48.708;9.710;2024-02-26T04:37:21;0.77;;;0.70;;
76051;SDS011;64751;48.708;9.710;2024-02-26T04:39:53;0.80;;;0.75;;
76051;SDS011;64751;48.708;9.710;2024-02-26T04:42:26;0.60;;;0.60;;
76051;SDS011;64751;48.708;9.710;2024-02-26T04:44:59;1.33;;;0.90;;
76051;SDS011;64751;48.708;9.710;2024-02-26T04:47:27;1.27;;;0.73;;
76051;SDS011;64751;48.708;9.710;2024-02-26T04:49:54;0.85;;;0.70;;
76051;SDS011;64751;48.708;9.710;2024-02-26T04:52:27;0.68;;;0.47;;
76051;SDS011;64751;48.708;9.710;2024-02-26T04:54:59;0.88;;;0.60;;
76051;SDS011;64751;48.708;9.710;2024-02-26T04:57:31;1.23;;;0.90;;
76051;SDS011;64751;48.708;9.710;2024-02-26T05:00:00;1.20;;;0.85;;
76051;SDS011;64751;48.708;9.710;2024-02-26T05:02:29;0.73;;;0.70;;
76051;SDS011;64751;48.708;9.710;2024-02-26T05:05:03;0.65;;;0.63;;
76051;SDS011;64751;48.708;9.710;2024-02-26T05:07:31;0.88;;;0.80;;
76051;SDS011;64751;48.708;9.710;2024-02-26T05:09:59;1.20;;;0.85;;
76051;SDS011;64751;48.708;9.710;2024-02-26T05:12:26;1.50;;;1.00;;
76051;SDS011;64751;48.708;9.710;2024-02-26T05:14:58;1.60;;;1.20;;
76051;SDS011;64751;48.708;9.710;2024-02-26T05:17:32;1.48;;;1.10;;
76051;SDS011;64751;48.708;9.710;2024-02-26T05:20:05;1.20;;;0.93;;
76051;SDS011;64751;48.708;9.710;2024-02-26T05:22:38;1.25;;;1.00;;
76051;SDS011;64751;48.708;9.710;2024-02-26T05:25:06;1.20;;;0.90;;
76051;SDS011;64751;48.708;9.710;2024-02-26T05:27:34;0.93;;;0.80;;
76051;SDS011;64751;48.708;9.710;2024-02-26T05:30:01;1.27;;;0.90;;
76051;SDS011;64751;48.708;9.710;2024-02-26T05:32:35;1.20;;;1.08;;
76051;SDS011;64751;48.708;9.710;2024-02-26T05:35:08;1.45;;;0.80;;
76051;SDS011;64751;48.708;9.710;2024-02-26T05:37:35;1.17;;;0.95;;
76051;SDS011;64751;48.708;9.710;2024-02-26T05:40:08;1.45;;;1.00;;
76051;SDS011;64751;48.708;9.710;2024-02-26T05:42:36;1.00;;;0.90;;
76051;SDS011;64751;48.708;9.710;2024-02-26T05:45:04;1.38;;;1.00;;
76051;SDS011;64751;48.708;9.710;2024-02-26T05:47:32;0.68;;;0.68;;
76051;SDS011;64751;48.708;9.710;2024-02-26T05:50:06;1.60;;;0.98;;
76051;SDS011;64751;48.708;9.710;2024-02-26T05:52:36;1.05;;;0.82;;
76051;SDS011;64751;48.708;9.710;2024-02-26T05:55:04;0.98;;;0.80;;
76051;SDS011;64751;48.708;9.710;2024-02-26T05:57:33;0.88;;;0.80;;
76051;SDS011;64751;48.708;9.710;2024-02-26T06:00:00;1.48;;;0.60;;
76051;SDS011;64751;48.708;9.710;2024-02-26T06:02:37;0.82;;;0.77;;
76051;SDS011;64751;48.708;9.710;2024-02-26T06:05:07;0.70;;;0.65;;
76051;SDS011;64751;48.708;9.710;2024-02-26T06:07:35;1.00;;;0.65;;
76051;SDS011;64751;48.708;9.710;2024-02-26T06:10:02;0.93;;;0.70;;
76051;SDS011;64751;48.708;9.710;2024-02-26T06:12:35;1.40;;;1.08;;
76051;SDS011;64751;48.708;9.710;2024-02-26T06:15:03;1.20;;;1.00;;
76051;SDS011;64751;48.708;9.710;2024-02-26T06:17:31;0.60;;;0.60;;
76051;SDS011;64751;48.708;9.710;2024-02-26T06:20:05;1.30;;;0.90;;
76051;SDS011;64751;48.708;9.710;2024-02-26T06:22:43;1.20;;;0.82;;
76051;SDS011;64751;48.708;9.710;2024-02-26T06:25:11;0.30;;;0.30;;
76051;SDS011;64751;48.708;9.710;2024-02-26T06:27:43;0.85;;;0.60;;
76051;SDS011;64751;48.708;9.710;2024-02-26T06:30:15;0.70;;;0.47;;
76051;SDS011;64751;48.708;9.710;2024-02-26T06:32:43;1.30;;;0.85;;
76051;SDS011;64751;48.708;9.710;2024-02-26T06:35:12;0.60;;;0.60;;
76051;SDS011;64751;48.708;9.710;2024-02-26T06:37:44;1.00;;;0.77;;
76051;SDS011;64751;48.708;9.710;2024-02-26T06:40:12;0.70;;;0.60;;
76051;SDS011;64751;48.708;9.710;2024-02-26T06:42:44;0.80;;;0.50;;
76051;SDS011;64751;48.708;9.710;2024-02-26T06:45:17;0.57;;;0.40;;
76051;SDS011;64751;48.708;9.710;2024-02-26T06:47:45;0.60;;;0.52;;
76051;SDS011;64751;48.708;9.710;2024-02-26T06:50:19;0.77;;;0.52;;
76051;SDS011;64751;48.708;9.710;2024-02-26T06:52:51;0.50;;;0.50;;
76051;SDS011;64751;48.708;9.710;2024-02-26T06:55:19;0.65;;;0.55;;
76051;SDS011;64751;48.708;9.710;2024-02-26T06:57:46;0.30;;;0.30;;
76051;SDS011;64751;48.708;9.710;2024-02-26T07:00:19;0.40;;;0.40;;
76051;SDS011;64751;48.708;9.710;2024-02-26T07:02:51;0.85;;;0.55;;
76051;SDS011;64751;48.708;9.710;2024-02-26T07:05:28;0.63;;;0.50;;
76051;SDS011;64751;48.708;9.710;2024-02-26T07:07:55;0.50;;;0.50;;
76051;SDS011;64751;48.708;9.710;2024-02-26T07:10:28;0.40;;;0.40;;
76051;SDS011;64751;48.708;9.710;2024-02-26T07:13:00;0.40;;;0.40;;
76051;SDS011;64751;48.708;9.710;2024-02-26T07:15:27;0.68;;;0.50;;
76051;SDS011;64751;48.708;9.710;2024-02-26T07:18:00;0.82;;;0.60;;
76051;SDS011;64751;48.708;9.710;2024-02-26T07:20:30;0.60;;;0.50;;
76051;SDS011;64751;48.708;9.710;2024-02-26T07:23:02;0.60;;;0.40;;
76051;SDS011;64751;48.708;9.710;2024-02-26T07:25:30;0.55;;;0.50;;
76051;SDS011;64751;48.708;9.710;2024-02-26T07:27:57;0.85;;;0.50;;
76051;SDS011;64751;48.708;9.710;2024-02-26T07:30:30;0.80;;;0.60;;
76051;SDS011;64751;48.708;9.710;2024-02-26T07:32:57;1.30;;;0.80;;
76051;SDS011;64751;48.708;9.710;2024-02-26T07:35:24;0.90;;;0.75;;
76051;SDS011;64751;48.708;9.710;2024-02-26T07:37:54;1.23;;;0.90;;
76051;SDS011;64751;48.708;9.710;2024-02-26T07:40:22;1.70;;;1.10;;
76051;SDS011;64751;48.708;9.710;2024-02-26T07:42:54;1.23;;;1.00;;
76051;SDS011;64751;48.708;9.710;2024-02-26T07:45:27;1.58;;;1.25;;
76051;SDS011;64751;48.708;9.710;2024-02-26T07:47:59;1.20;;;0.90;;
76051;SDS011;64751;48.708;9.710;2024-02-26T07:50:26;1.70;;;1.20;;
76051;SDS011;64751;48.708;9.710;2024-02-26T07:53:00;1.42;;;1.20;;
76051;SDS011;64751;48.708;9.710;2024-02-26T07:55:27;1.42;;;1.10;;
76051;SDS011;64751;48.708;9.710;2024-02-26T07:57:55;1.48;;;1.15;;
76051;SDS011;64751;48.708;9.710;2024-02-26T08:00:27;1.40;;;1.02;;
76051;SDS011;64751;48.708;9.710;2024-02-26T08:02:55;1.50;;;1.20;;
76051;SDS011;64751;48.708;9.710;2024-02-26T08:05:27;1.92;;;1.58;;
76051;SDS011;64751;48.708;9.710;2024-02-26T08:08:01;1.13;;;0.98;;
76051;SDS011;64751;48.708;9.710;2024-02-26T08:10:28;1.27;;;1.08;;
76051;SDS011;64751;48.708;9.710;2024-02-26T08:12:56;1.40;;;1.10;;
76051;SDS011;64751;48.708;9.710;2024-02-26T08:15:35;1.27;;;1.05;;
76051;SDS011;64751;48.708;9.710;2024-02-26T08:18:04;1.80;;;1.25;;
76051;SDS011;64751;48.708;9.710;2024-02-26T08:20:37;1.60;;;1.20;;
76051;SDS011;64751;48.708;9.710;2024-02-26T08:23:06;1.67;;;1.30;;
76051;SDS011;64751;48.708;9.710;2024-02-26T08:25:38;1.90;;;1.30;;
76051;SDS011;64751;48.708;9.710;2024-02-26T08:28:11;1.48;;;1.20;;
76051;SDS011;64751;48.708;9.710;2024-02-26T08:30:44;1.40;;;1.13;;
76051;SDS011;64751;48.708;9.710;2024-02-26T08:33:16;2.15;;;1.40;;
76051;SDS011;64751;48.708;9.710;2024-02-26T08:35:49;1.55;;;1.00;;
76051;SDS011;64751;48.708;9.710;2024-02-26T08:38:17;1.52;;;1.20;;
76051;SDS011;64751;48.708;9.710;2024-02-26T08:40:50;1.75;;;1.20;;
76051;SDS011;64751;48.708;9.710;2024-02-26T08:43:17;1.55;;;1.08;;
76051;SDS011;64751;48.708;9.710;2024-02-26T08:45:50;1.73;;;1.20;;
76051;SDS011;64751;48.708;9.710;2024-02-26T08:48:22;1.65;;;1.15;;
76051;SDS011;64751;48.708;9.710;2024-02-26T08:50:54;1.65;;;1.10;;
76051;SDS011;64751;48.708;9.710;2024-02-26T08:53:28;1.27;;;1.10;;
76051;SDS011;64751;48.708;9.710;2024-02-26T08:55:56;1.02;;;0.93;;
76051;SDS011;64751;48.708;9.710;2024-02-26T08:58:28;1.80;;;1.25;;
76051;SDS011;64751;48.708;9.710;2024-02-26T09:00:55;1.80;;;1.30;;
76051;SDS011;64751;48.708;9.710;2024-02-26T09:03:28;1.30;;;1.05;;
76051;SDS011;64751;48.708;9.710;2024-02-26T09:06:01;1.65;;;1.20;;
76051;SDS011;64751;48.708;9.710;2024-02-26T09:08:29;1.88;;;1.20;;
76051;SDS011;64751;48.708;9.710;2024-02-26T09:10:57;1.75;;;1.23;;
76051;SDS011;64751;48.708;9.710;2024-02-26T09:13:29;1.27;;;1.10;;
76051;SDS011;64751;48.708;9.710;2024-02-26T09:15:56;1.52;;;1.20;;
76051;SDS011;64751;48.708;9.710;2024-02-26T09:18:29;1.38;;;1.05;;
76051;SDS011;64751;48.708;9.710;2024-02-26T09:21:03;1.40;;;1.00;;
76051;SDS011;64751;48.708;9.710;2024-02-26T09:23:39;1.40;;;1.10;;
76051;SDS011;64751;48.708;9.710;2024-02-26T09:26:11;1.65;;;1.10;;
76051;SDS011;64751;48.708;9.710;2024-02-26T09:28:44;1.20;;;1.02;;
76051;SDS011;64751;48.708;9.710;2024-02-26T09:31:11;1.40;;;0.98;;
76051;SDS011;64751;48.708;9.710;2024-02-26T09:33:46;1.38;;;1.00;;
76051;SDS011;64751;48.708;9.710;2024-02-26T09:36:19;1.30;;;0.90;;
76051;SDS011;64751;48.708;9.710;2024-02-26T09:38:54;1.15;;;0.90;;
76051;SDS011;64751;48.708;9.710;2024-02-26T09:41:27;1.45;;;0.95;;
76051;SDS011;64751;48.708;9.710;2024-02-26T09:43:56;0.75;;;0.73;;
76051;SDS011;64751;48.708;9.710;2024-02-26T09:46:25;1.60;;;0.70;;
76051;SDS011;64751;48.708;9.710;2024-02-26T09:48:58;1.27;;;0.93;;
76051;SDS011;64751;48.708;9.710;2024-02-26T09:51:30;1.23;;;0.90;;
76051;SDS011;64751;48.708;9.710;2024-02-26T09:53:59;1.27;;;0.90;;
76051;SDS011;64751;48.708;9.710;2024-02-26T09:56:27;1.25;;;0.82;;
76051;SDS011;64751;48.708;9.710;2024-02-26T09:58:57;1.17;;;0.80;;
76051;SDS011;64751;48.708;9.710;2024-02-26T10:01:31;1.10;;;0.90;;
76051;SDS011;64751;48.708;9.710;2024-02-26T10:04:05;0.68;;;0.65;;
76051;SDS011;64751;48.708;9.710;2024-02-26T10:06:33;1.13;;;0.90;;
76051;SDS011;64751;48.708;9.710;2024-02-26T10:09:04;1.02;;;0.80;;
76051;SDS011;64751;48.708;9.710;2024-02-26T10:11:38;0.85;;;0.77;;
76051;SDS011;64751;48.708;9.710;2024-02-26T10:14:14;1.17;;;0.80;;
76051;SDS011;64751;48.708;9.710;2024-02-26T10:16:48;0.80;;;0.65;;
76051;SDS011;64751;48.708;9.710;2024-02-26T10:19:24;0.77;;;0.70;;
76051;SDS011;64751;48.708;9.710;2024-02-26T10:21:58;0.63;;;0.63;;
76051;SDS011;64751;48.708;9.710;2024-02-26T10:24:28;1.23;;;0.80;;
76051;SDS011;64751;48.708;9.710;2024-02-26T10:27:01;0.75;;;0.60;;
76051;SDS011;64751;48.708;9.710;2024-02-26T10:29:29;0.75;;;0.47;;
76051;SDS011;64751;48.708;9.710;2024-02-26T10:32:02;1.00;;;0.73;;
76051;SDS011;64751;48.708;9.710;2024-02-26T10:34:34;1.08;;;0.60;;
76051;SDS011;64751;48.708;9.710;2024-02-26T10:37:09;1.15;;;0.80;;
76051;SDS011;64751;48.708;9.710;2024-02-26T10:39:45;0.73;;;0.60;;
76051;SDS011;64751;48.708;9.710;2024-02-26T10:42:14;0.43;;;0.43;;
76051;SDS011;64751;48.708;9.710;2024-02-26T10:44:43;0.68;;;0.60;;
76051;SDS011;64751;48.708;9.710;2024-02-26T10:47:16;0.43;;;0.43;;
76051;SDS011;64751;48.708;9.710;2024-02-26T10:49:49;1.00;;;0.60;;
76051;SDS011;64751;48.708;9.710;2024-02-26T10:52:22;0.52;;;0.50;;
76051;SDS011;64751;48.708;9.710;2024-02-26T10:54:53;0.90;;;0.70;;
76051;SDS011;64751;48.708;9.710;2024-02-26T10:57:29;1.00;;;0.65;;
76051;SDS011;64751;48.708;9.710;2024-02-26T11:00:04;1.05;;;0.70;;
76051;SDS011;64751;48.708;9.710;2024-02-26T11:02:41;0.70;;;0.70;;
76051;SDS011;64751;48.708;9.710;2024-02-26T11:05:09;0.50;;;0.50;;
76051;SDS011;64751;48.708;9.710;2024-02-26T11:07:39;1.60;;;0.77;;
76051;SDS011;64751;48.708;9.710;2024-02-26T11:10:14;0.77;;;0.65;;
76051;SDS011;64751;48.708;9.710;2024-02-26T11:12:48;1.25;;;0.90;;
76051;SDS011;64751;48.708;9.710;2024-02-26T11:15:18;1.02;;;0.77;;
76051;SDS011;64751;48.708;9.710;2024-02-26T11:17:46;0.88;;;0.73;;
76051;SDS011;64751;48.708;9.710;2024-02-26T11:20:19;0.70;;;0.70;;
76051;SDS011;64751;48.708;9.710;2024-02-26T11:22:52;0.73;;;0.70;;
76051;SDS011;64751;48.708;9.710;2024-02-26T11:25:26;0.82;;;0.65;;
76051;SDS011;64751;48.708;9.710;2024-02-26T11:27:59;0.60;;;0.60;;
76051;SDS011;64751;48.708;9.710;2024-02-26T11:30:35;0.90;;;0.75;;
76051;SDS011;64751;48.708;9.710;2024-02-26T11:33:08;1.00;;;0.60;;
76051;SDS011;64751;48.708;9.710;2024-02-26T11:35:38;1.02;;;0.80;;
76051;SDS011;64751;48.708;9.710;2024-02-26T11:38:16;0.60;;;0.57;;
76051;SDS011;64751;48.708;9.710;2024-02-26T11:40:53;1.02;;;0.82;;
76051;SDS011;64751;48.708;9.710;2024-02-26T11:43:22;0.85;;;0.80;;
76051;SDS011;64751;48.708;9.710;2024-02-26T11:45:55;1.48;;;0.93;;
76051;SDS011;64751;48.708;9.710;2024-02-26T11:48:25;1.13;;;0.80;;
76051;SDS011;64751;48.708;9.710;2024-02-26T11:50:55;1.15;;;0.80;;
76051;SDS011;64751;48.708;9.710;2024-02-26T11:53:30;1.02;;;0.82;;
76051;SDS011;64751;48.708;9.710;2024-02-26T11:56:23;0.88;;;0.70;;
76051;SDS011;64751;48.708;9.710;2024-02-26T11:58:58;0.80;;;0.60;;
76051;SDS011;64751;48.708;9.710;2024-02-26T12:01:40;0.95;;;0.60;;
76051;SDS011;64751;48.708;9.710;2024-02-26T12:04:11;0.68;;;0.50;;
76051;SDS011;64751;48.708;9.710;2024-02-26T12:06:41;0.65;;;0.50;;
76051;SDS011;64751;48.708;9.710;2024-02-26T12:09:31;0.60;;;0.50;;
76051;SDS011;64751;48.708;9.710;2024-02-26T12:12:04;0.65;;;0.52;;
76051;SDS011;64751;48.708;9.710;2024-02-26T12:14:38;1.05;;;0.70;;
76051;SDS011;64751;48.708;9.710;2024-02-26T12:17:19;0.73;;;0.50;;
76051;SDS011;64751;48.708;9.710;2024-02-26T12:19:47;0.50;;;0.40;;
76051;SDS011;64751;48.708;9.710;2024-02-26T12:22:20;0.43;;;0.43;;
76051;SDS011;64751;48.708;9.710;2024-02-26T12:24:47;0.73;;;0.45;;
76051;SDS011;64751;48.708;9.710;2024-02-26T12:27:26;0.95;;;0.57;;
76051;SDS011;64751;48.708;9.710;2024-02-26T12:29:58;0.52;;;0.40;;
76051;SDS011;64751;48.708;9.710;2024-02-26T12:32:26;0.50;;;0.50;;
76051;SDS011;64751;48.708;9.710;2024-02-26T12:34:58;0.57;;;0.45;;
76051;SDS011;64751;48.708;9.710;2024-02-26T12:37:26;0.85;;;0.60;;
76051;SDS011;64751;48.708;9.710;2024-02-26T12:39:54;0.55;;;0.40;;
76051;SDS011;64751;48.708;9.710;2024-02-26T12:42:21;0.32;;;0.32;;
76051;SDS011;64751;48.708;9.710;2024-02-26T12:44:51;1.17;;;0.70;;
76051;SDS011;64751;48.708;9.710;2024-02-26T12:47:19;1.00;;;0.60;;
76051;SDS011;64751;48.708;9.710;2024-02-26T12:49:47;0.40;;;0.30;;
76051;SDS011;64751;48.708;9.710;2024-02-26T12:52:20;1.27;;;0.47;;
76051;SDS011;64751;48.708;9.710;2024-02-26T12:54:47;0.52;;;0.52;;
76051;SDS011;64751;48.708;9.710;2024-02-26T12:57:21;0.70;;;0.55;;
76051;SDS011;64751;48.708;9.710;2024-02-26T12:59:55;1.02;;;0.55;;
76051;SDS011;64751;48.708;9.710;2024-02-26T13:02:27;1.05;;;0.57;;
76051;SDS011;64751;48.708;9.710;2024-02-26T13:04:55;0.43;;;0.40;;
76051;SDS011;64751;48.708;9.710;2024-02-26T13:07:28;0.57;;;0.50;;
76051;SDS011;64751;48.708;9.710;2024-02-26T13:10:01;0.55;;;0.50;;
76051;SDS011;64751;48.708;9.710;2024-02-26T13:12:34;0.52;;;0.47;;
76051;SDS011;64751;48.708;9.710;2024-02-26T13:15:03;0.75;;;0.40;;
76051;SDS011;64751;48.708;9.710;2024-02-26T13:17:31;1.13;;;0.75;;
76051;SDS011;64751;48.708;9.710;2024-02-26T13:19:58;0.30;;;0.30;;
76051;SDS011;64751;48.708;9.710;2024-02-26T13:22:26;0.47;;;0.40;;
76051;SDS011;64751;48.708;9.710;2024-02-26T13:24:56;0.47;;;0.45;;
76051;SDS011;64751;48.708;9.710;2024-02-26T13:27:29;1.00;;;0.70;;
76051;SDS011;64751;48.708;9.710;2024-02-26T13:30:05;0.93;;;0.57;;
76051;SDS011;64751;48.708;9.710;2024-02-26T13:32:36;1.23;;;0.80;;
76051;SDS011;64751;48.708;9.710;2024-02-26T13:35:06;1.10;;;0.90;;
76051;SDS011;64751;48.708;9.710;2024-02-26T13:37:35;0.93;;;0.80;;
76051;SDS011;64751;48.708;9.710;2024-02-26T13:40:04;1.02;;;0.88;;
76051;SDS011;64751;48.708;9.710;2024-02-26T13:42:32;1.23;;;0.80;;
76051;SDS011;64751;48.708;9.710;2024-02-26T13:45:00;1.02;;;0.80;;
76051;SDS011;64751;48.708;9.710;2024-02-26T13:47:29;0.80;;;0.55;;
76051;SDS011;64751;48.708;9.710;2024-02-26T13:49:56;0.70;;;0.70;;
76051;SDS011;64751;48.708;9.710;2024-02-26T13:52:24;1.15;;;0.80;;
76051;SDS011;64751;48.708;9.710;2024-02-26T13:54:52;1.05;;;0.73;;
76051;SDS011;64751;48.708;9.710;2024-02-26T13:57:19;0.93;;;0.75;;
76051;SDS011;64751;48.708;9.710;2024-02-26T13:59:51;1.00;;;0.90;;
76051;SDS011;64751;48.708;9.710;2024-02-26T14:02:24;0.65;;;0.63;;
76051;SDS011;64751;48.708;9.710;2024-02-26T14:04:58;1.13;;;0.80;;
76051;SDS011;64751;48.708;9.710;2024-02-26T14:07:29;1.08;;;0.80;;
76051;SDS011;64751;48.708;9.710;2024-02-26T14:09:58;1.05;;;0.90;;
76051;SDS011;64751;48.708;9.710;2024-02-26T14:12:25;1.40;;;0.98;;
76051;SDS011;64751;48.708;9.710;2024-02-26T14:14:53;1.00;;;0.70;;
76051;SDS011;64751;48.708;9.710;2024-02-26T14:17:26;0.70;;;0.70;;
76051;SDS011;64751;48.708;9.710;2024-02-26T14:20:00;1.42;;;0.90;;
76051;SDS011;64751;48.708;9.710;2024-02-26T14:22:33;1.00;;;0.70;;
76051;SDS011;64751;48.708;9.710;2024-02-26T14:25:00;1.25;;;0.90;;
76051;SDS011;64751;48.708;9.710;2024-02-26T14:27:28;1.13;;;0.88;;
76051;SDS011;64751;48.708;9.710;2024-02-26T14:30:00;0.65;;;0.63;;
76051;SDS011;64751;48.708;9.710;2024-02-26T14:32:33;1.02;;;0.80;;
76051;SDS011;64751;48.708;9.710;2024-02-26T14:35:06;1.05;;;0.80;;
76051;SDS011;64751;48.708;9.710;2024-02-26T14:37:35;1.40;;;1.10;;
76051;SDS011;64751;48.708;9.710;2024-02-26T14:40:02;1.35;;;0.95;;
76051;SDS011;64751;48.708;9.710;2024-02-26T14:42:36;1.55;;;1.15;;
76051;SDS011;64751;48.708;9.710;2024-02-26T14:45:08;1.77;;;1.20;;
76051;SDS011;64751;48.708;9.710;2024-02-26T14:47:37;2.88;;;1.80;;
76051;SDS011;64751;48.708;9.710;2024-02-26T14:50:11;1.67;;;1.23;;
76051;SDS011;64751;48.708;9.710;2024-02-26T14:52:43;1.60;;;1.20;;
76051;SDS011;64751;48.708;9.710;2024-02-26T14:55:11;1.85;;;1.20;;
76051;SDS011;64751;48.708;9.710;2024-02-26T14:57:38;1.67;;;1.10;;
76051;SDS011;64751;48.708;9.710;2024-02-26T15:00:10;1.63;;;1.00;;
76051;SDS011;64751;48.708;9.710;2024-02-26T15:02:43;1.23;;;1.00;;
76051;SDS011;64751;48.708;9.710;2024-02-26T15:05:12;1.50;;;1.10;;
76051;SDS011;64751;48.708;9.710;2024-02-26T15:07:47;1.40;;;1.10;;
76051;SDS011;64751;48.708;9.710;2024-02-26T15:10:20;1.88;;;1.00;;